Portada
METAR-TAF:

METAR-TAF

Aeroports :

Nan, Tailàndia

latitud: 18-46N, longitud: 100-46E, altitud: 200 m

Observació

L'informe es va fer fa 17 minuts, a les 23:00 UTC
Vent calma
Temperatura 25°C
Humitat 100%
Pressió 1005 hPa
Visibilitat: 7000 m
Escasses núvols a una alçada de 200 ft
Núvols disperses a una alçada de 500 ft

METAR: VTCN 082300Z 00000KT 7000 FEW002 SCT005 25/25 Q1005 NOSIG

Hora: 06:17 (23:17 UTC)

Pronòstic

L'informe es va fer fa 6 hores i 17 minuts, a les 17:00 UTC
Pronòstic vàlid del 08 a les 18 UTC al 09 a les 18 UTC
Vent 5 kt del Sud/Sud-Oest
Visibilitat 10 km o més
Núvols disperses a una alçada de 4000 ft
Temporalment
l' 09 a les 08 UTC al 09 a les 12 UTC
Vent 15 kt del Sud/Sud-Oest amb ràfegues de 30 kt
Visibilitat: 4000 m
Escasses núvols a una alçada de 2500 ft, Cumulonimbus.
Cel ennuvolat a una alçada de 3500 ft
tempesta, pluja

TAF: VTCN 081700Z 0818/0918 20005KT 9999 SCT040 TEMPO 0908/0912 20015G30KT 4000 TSRA FEW025CB BKN035

Observacions i pronòstics meteorològics de més de 4000 aeroports (METAR i TAF).

Les estacions disponibles són els punts grocs i vermells al mapa.

Posi el ratolí al punt desitjat per veure el nom de l'estació.

Feu clic per veure les observacions i els pronòstics meteorològics.

Per canviar el mapa: feu clic els botons verds amb una creu de color negre per apropar; al botó verd amb un guió per allunyar la imatge; o en les fletxes verdes per a mapes adjacents.


METAR-TAF: